Home > Products > Valid Products > MTR

000
SAUS43 KUNR 211403
MTR2WX
METAR K2WX 211356Z AUTO 27004KT 08/M03 A3017 RMK AO1 SLP220
T00831028





000
SAUS43 KUNR 211357
MTRD07
METAR KD07 211356Z AUTO 31009KT 09/M02 A3021 RMK AO1 SLP235
T00891022





000
SAUS43 KUNR 211303
MTR2WX
METAR K2WX 211256Z AUTO 27007KT 03/M04 A3015 RMK AO1 SLP216
T00331044





000
SAUS43 KUNR 211257
MTRD07
METAR KD07 211256Z AUTO 30008KT 06/M03 A3020 RMK AO1 SLP232
T00561028





000
SAUS43 KUNR 211203
MTR2WX
METAR K2WX 211156Z AUTO 29008KT 04/M04 A3014 RMK AO1 SLP208
T00391044 10072 20022 51012





000
SAUS43 KUNR 211157
MTRD07
METAR KD07 211156Z AUTO 29008KT 03/M04 A3018 RMK AO1 SLP226
T00331039 10061 20033 53015





000
SAUS43 KUNR 211103
MTR2WX
METAR K2WX 211056Z AUTO 28006KT 04/M05 A3013 RMK AO1 SLP204
T00391050





000
SAUS43 KUNR 211058
MTRD07
METAR KD07 211056Z AUTO 28008KT 03/M04 A3016 RMK AO1 SLP221
T00331039





000
SAUS43 KUNR 211003
MTR2WX
METAR K2WX 210956Z AUTO 29007KT 04/M06 A3012 RMK AO1 SLP199
T00441056





000
SAUS43 KUNR 210957
MTRD07
METAR KD07 210956Z AUTO 28008KT 03/M04 A3015 RMK AO1 SLP213
T00331039





000
SAUS43 KUNR 210903
MTR2WX
METAR K2WX 210856Z AUTO 27007KT 03/M06 A3010 RMK AO1 SLP195
T00331056 51009





000
SAUS43 KUNR 210857
MTRD07
METAR KD07 210856Z AUTO 28006KT 03/M03 A3013 RMK AO1 SLP207
T00331033 51010





000
SAUS43 KUNR 210803
MTR2WX
METAR K2WX 210756Z AUTO 28006KT 06/M07 A3010 RMK AO1 SLP192
T00561067





000
SAUS43 KUNR 210757
MTRD07
METAR KD07 210756Z AUTO 30008KT 05/M04 A3012 RMK AO1 SLP203
T00501039





000
SAUS43 KUNR 210703
MTR2WX
METAR K2WX 210656Z AUTO 27005KT 04/M06 A3009 RMK AO1 SLP194
T00441056 402110039





000
SAUS43 KUNR 210657
MTRD07
METAR KD07 210656Z AUTO 29007KT 06/M04 A3012 RMK AO1 SLP202
T00561039 402390028





000
SAUS43 KUNR 210604 COR
MTR2WX
METAR K2WX 210556Z AUTO 32011KT 07/M06 A3007 RMK AO1 SLP183
T00721061 10189 20067 51013





000
SAUS43 KUNR 210603
MTR2WX
METAR K2WX 210556Z AUTO 32011KT 07/M06 A3007 RMK AO1 SLP183
T00721061 10189 20067 51013





000
SAUS43 KUNR 210557
MTRD07
METAR KD07 210556Z AUTO 31006KT 06/M04 A3010 RMK AO1 SLP195
T00611039 10206 20061 53018





000
SAUS43 KUNR 210503
MTR2WX
METAR K2WX 210456Z AUTO 32010KT 07/M06 A3006 RMK AO1 SLP177
T00721061





000
SAUS43 KUNR 210457
MTRD07
METAR KD07 210456Z AUTO 32008KT 08/M03 A3008 RMK AO1 SLP189
T00781033





000
SAUS43 KUNR 210403
MTR2WX
METAR K2WX 210356Z AUTO 32010KT 09/M07 A3006 RMK AO1 SLP177
T00891067





000
SAUS43 KUNR 210357
MTRD07
METAR KD07 210356Z AUTO 33012KT 09/M02 A3006 RMK AO1 SLP181
T00941022





000
SAUS43 KUNR 210303
MTR2WX
METAR K2WX 210256Z AUTO 33013KT 11/M07 A3003 RMK AO1 SLP170
T01061067 53025





000
SAUS43 KUNR 210258
MTRD07
METAR KD07 210256Z AUTO 35008KT 10/M02 A3004 RMK AO1 SLP176
T01001022 53030





000
SAUS43 KUNR 210203
MTR2WX
METAR K2WX 210156Z AUTO 32011KT 12/M06 A3000 RMK AO1 SLP164
T01221061





000
SAUS43 KUNR 210157
MTRD07
METAR KD07 210156Z AUTO 33010KT 14/M03 A3001 RMK AO1 SLP168
T01391028





000
SAUS43 KUNR 210103
MTR2WX
METAR K2WX 210056Z AUTO 32018G25KT 17/M07 A2998 RMK AO1 PK WND
31031/0000 SLP153 T01671072





000
SAUS43 KUNR 210057
MTRD07
METAR KD07 210056Z AUTO 34017G22KT 18/M02 A2998 RMK AO1 PK WND
34029/2357 SLP155 T01781022





000
SAUS43 KUNR 210004 COR
MTR2WX
METAR K2WX 202356Z AUTO 32024G30KT 19/M07 A2995 RMK AO1 PK WND
30034/2258 SLP142 T01891072 10206 20167 53011





000
SAUS43 KUNR 202357
MTRD07
METAR KD07 202356Z AUTO 34023G30KT 21/M02 A2995 RMK AO1 PK WND
34030/2355 SLP145 T02061017 10239 20200 53014





000
SAUS43 KUNR 202304 COR
MTR2WX
METAR K2WX 202256Z AUTO 32019G26KT 19/M05 A2994 RMK AO1 PK WND
33030/2157 SLP136 T01941050





000
SAUS43 KUNR 202257
MTRD07
METAR KD07 202256Z AUTO 33018KT 20/00 A2993 RMK AO1 PK WND
32030/2205 SLP140 T02000000





000
SAUS43 KUNR 202203
MTR2WX
METAR K2WX 202156Z AUTO 33021G28KT 20/M03 A2992 RMK AO1 PK WND
31031/2121 SLP130 T02001033





000
SAUS43 KUNR 202157
MTRD07
METAR KD07 202156Z AUTO 32023G29KT 22/04 A2990 RMK AO1 PK WND
33030/2146 SLP129 T02220039





000
SAUS43 KUNR 202103
MTR2WX
METAR K2WX 202056Z AUTO 32020G28KT 20/M02 A2992 RMK AO1 PK WND
31030/2038 SLP128 T02001022 50009





000
SAUS43 KUNR 202057
MTRD07
METAR KD07 202056Z AUTO 29009KT 23/04 A2990 RMK AO1 SLP127 T02280044
58001





000
SAUS43 KUNR 202003
MTR2WX
METAR K2WX 201956Z AUTO 31026G31KT 18/M02 A2992 RMK AO1 PK WND
31031/1956 SLP131 T01831022





000
SAUS43 KUNR 201957
MTRD07
METAR KD07 201956Z AUTO 27009KT 23/06 A2991 RMK AO1 SLP128 T02280061





000
SAUS43 KUNR 201903
MTR2WX
METAR K2WX 201856Z AUTO 32021KT 17/M02 A2990 RMK AO1 PK WND
33029/1846 SLP125 T01671017





000
SAUS43 KUNR 201857
MTRD07
METAR KD07 201856Z AUTO 18006KT 21/05 A2990 RMK AO1 SLP127 T02110050





000
SAUS43 KUNR 201803
MTR2WX
METAR K2WX 201756Z AUTO 31023G30KT 18/M01 A2989 RMK AO1 PK WND
31030/1752 SLP118 T01781006 10211 20044 53012





000
SAUS43 KUNR 201757
MTRD07
METAR KD07 201756Z AUTO 16015G23KT 21/06 A2990 RMK AO1 SLP126
T02110056 10211 20033 58003





000
SAUS43 KUNR 201703
MTR2WX
METAR K2WX 201656Z AUTO 27010KT 19/02 A2988 RMK AO1 SLP111 T01940022





000
SAUS43 KUNR 201657
MTRD07
METAR KD07 201656Z AUTO 17011KT 18/03 A2992 RMK AO1 SLP134 T01830033





000
SAUS43 KUNR 201603
MTR2WX
METAR K2WX 201556Z AUTO 20007KT 17/00 A2985 RMK AO1 SLP104 T01670000





000
SAUS43 KUNR 201557
MTRD07
METAR KD07 201556Z AUTO 16013G22KT 17/02 A2992 RMK AO1 SLP132
T01720022





000
SAUS43 KUNR 201503
MTR2WX
METAR K2WX 201456Z AUTO 18008KT 13/M01 A2985 RMK AO1 SLP104
T01331006 50000





000
SAUS43 KUNR 201457
MTRD07
METAR KD07 201456Z AUTO 17017KT 15/00 A2991 RMK AO1 SLP132 T01500000
58004





000
SAUS43 KUNR 201403
MTR2WX
METAR K2WX 201356Z AUTO 16007KT 09/M01 A2985 RMK AO1 SLP109
T00891011





000
SAUS43 KUNR 201357
MTRD07
METAR KD07 201356Z AUTO 17014KT 11/M01 A2992 RMK AO1 SLP138
T01061011





000
SAUS43 KUNR 201303
MTR2WX
METAR K2WX 201256Z AUTO 18005KT 05/M02 A2985 RMK AO1 SLP110
T00501022





000
SAUS43 KUNR 201257
MTRD07
METAR KD07 201256Z AUTO 17014KT 06/M02 A2993 RMK AO1 SLP139
T00611022





000
SAUS43 KUNR 201203
MTR2WX
METAR K2WX 201156Z AUTO 13003KT 06/M03 A2985 RMK AO1 SLP107
T00561028 10072 20050 56008





000
SAUS43 KUNR 201157
MTRD07
METAR KD07 201156Z AUTO 17013KT 03/M02 A2993 RMK AO1 SLP141
T00331022 10072 20028 56006





000
SAUS43 KUNR 201103
MTR2WX
METAR K2WX 201056Z AUTO 20003KT 06/M03 A2986 RMK AO1 SLP110
T00611028





000
SAUS43 KUNR 201057
MTRD07
METAR KD07 201056Z AUTO 16015KT 03/M02 A2993 RMK AO1 SLP142
T00281022





000
SAUS43 KUNR 201003
MTR2WX
METAR K2WX 200956Z AUTO 16004KT 06/M03 A2986 RMK AO1 SLP112
T00611028





000
SAUS43 KUNR 200957
MTRD07
METAR KD07 200956Z AUTO 16015KT 03/M02 A2993 RMK AO1 SLP142
T00331022





000
SAUS43 KUNR 200903
MTR2WX
METAR K2WX 200856Z AUTO 12004KT 05/M03 A2987 RMK AO1 SLP117
T00501028 58008





000
SAUS43 KUNR 200857
MTRD07
METAR KD07 200856Z AUTO 16014KT 04/M02 A2995 RMK AO1 SLP147
T00391022 58006





000
SAUS43 KUNR 200803
MTR2WX
METAR K2WX 200756Z AUTO 16008KT 06/M02 A2988 RMK AO1 SLP120
T00611022





000
SAUS43 KUNR 200758
MTRD07
METAR KD07 200756Z AUTO 17011KT 03/M02 A2996 RMK AO1 SLP153
T00331022





000
SAUS43 KUNR 200703
MTR2WX
METAR K2WX 200656Z AUTO 15009KT 07/M02 A2989 RMK AO1 SLP124
T00671022 401830000





000
SAUS43 KUNR 200657
MTRD07
METAR KD07 200656Z AUTO 17011KT 05/M02 A2997 RMK AO1 SLP154
T00501022 401940039





000
SAUS43 KUNR 200603
MTR2WX
METAR K2WX 200556Z AUTO 15006KT 07/M03 A2990 RMK AO1 SLP125
T00721028 10178 20072 55005





000
SAUS43 KUNR 200557
MTRD07
METAR KD07 200556Z AUTO 16012KT 08/M02 A2997 RMK AO1 SLP153
T00781022 10178 20050 58008





000
SAUS43 KUNR 200503
MTR2WX
METAR K2WX 200456Z AUTO 15011KT 09/M02 A2990 RMK AO1 SLP125
T00891022





000
SAUS43 KUNR 200457
MTRD07
METAR KD07 200456Z AUTO 16010KT 07/M02 A2998 RMK AO1 SLP158
T00671022





000
SAUS43 KUNR 200403
MTR2WX
METAR K2WX 200356Z AUTO 14007KT 09/M03 A2991 RMK AO1 SLP131
T00941033





000
SAUS43 KUNR 200357
MTRD07
METAR KD07 200356Z AUTO 17010KT 09/M02 A2999 RMK AO1 SLP163
T00891022





000
SAUS43 KUNR 200303
MTR2WX
METAR K2WX 200256Z AUTO 12007KT 13/M06 A2991 RMK AO1 SLP129
T01331061 53002





000
SAUS43 KUNR 200257
MTRD07
METAR KD07 200256Z AUTO 16009KT 11/M03 A2999 RMK AO1 SLP163
T01061028 53006





000
SAUS43 KUNR 200203
MTR2WX
METAR K2WX 200156Z AUTO 08005KT 14/M07 A2990 RMK AO1 SLP129
T01441072





000
SAUS43 KUNR 200157
MTRD07
METAR KD07 200156Z AUTO 18009KT 11/M02 A2998 RMK AO1 SLP162
T01061022





000
SAUS43 KUNR 200103
MTR2WX
METAR K2WX 200056Z AUTO 00000KT 17/M08 A2990 RMK AO1 SLP132
T01671078





000
SAUS43 KUNR 200057
MTRD07
METAR KD07 200056Z AUTO 23004KT 17/M02 A2997 RMK AO1 SLP156
T01671022





000
SAUS43 KUNR 200003
MTR2WX
METAR K2WX 192356Z AUTO VRB06KT 18/M07 A2991 RMK AO1 SLP135
T01781072 10183 20144 55004





000
SAUS43 KUNR 192357
MTRD07
METAR KD07 192356Z AUTO 22007KT 18/M04 A2998 RMK AO1 SLP157
T01781039 10194 20156 55003





000
SAUS43 KUNR 192303
MTR2WX
METAR K2WX 192256Z AUTO 28011KT 17/M07 A2991 RMK AO1 SLP133
T01721067





000
SAUS43 KUNR 192257
MTRD07
METAR KD07 192256Z AUTO 24007KT 18/M05 A2997 RMK AO1 SLP154
T01831050





000
SAUS43 KUNR 192203
MTR2WX
METAR K2WX 192156Z AUTO 31019G22KT 17/M06 A2991 RMK AO1 SLP134
T01721061





000
SAUS43 KUNR 192157
MTRD07
METAR KD07 192156Z AUTO 27009KT 19/M04 A2998 RMK AO1 PK WND
29027/2122 SLP156 T01891044





000
SAUS43 KUNR 192103
MTR2WX
METAR K2WX 192056Z AUTO 28014G24KT 17/M06 A2992 RMK AO1 SLP137
T01721061 56005





000
SAUS43 KUNR 192057
MTRD07
METAR KD07 192056Z AUTO 28012G16KT 18/M05 A2998 RMK AO1 SLP158
T01831050 56002





000
SAUS43 KUNR 192003
MTR2WX
METAR K2WX 191956Z AUTO 28016KT 17/M06 A2993 RMK AO1 PK WND
28027/1939 SLP136 T01671056





000
SAUS43 KUNR 191957
MTRD07
METAR KD07 191956Z AUTO 30013G19KT 18/M05 A2999 RMK AO1 SLP159
T01781050





000
SAUS43 KUNR 191903
MTR2WX
METAR K2WX 191856Z AUTO 29018G26KT 16/M06 A2993 RMK AO1 PK WND
27027/1806 SLP137 T01561056





000
SAUS43 KUNR 191857
MTRD07
METAR KD07 191856Z AUTO 30014G22KT 17/M05 A2998 RMK AO1 SLP158
T01671050





000
SAUS43 KUNR 191803
MTR2WX
METAR K2WX 191756Z AUTO 27018G24KT 14/M05 A2994 RMK AO1 PK WND
25027/1659 SLP142 T01441050 10144 20000 50003





000
SAUS43 KUNR 191757
MTRD07
METAR KD07 191756Z AUTO 28017G22KT 16/M06 A2999 RMK AO1 SLP158
T01561056 10161 20039 58001





000
SAUS43 KUNR 191703
MTR2WX
METAR K2WX 191656Z AUTO 28017G27KT 13/M06 A2994 RMK AO1 PK WND
28029/1607 SLP143 T01281056





000
SAUS43 KUNR 191657
MTRD07
METAR KD07 191656Z AUTO 29017G22KT 14/M05 A2999 RMK AO1 SLP162
T01441050





000
SAUS43 KUNR 191603
MTR2WX
METAR K2WX 191556Z AUTO 28025KT 12/M06 A2994 RMK AO1 PK WND
29033/1511 SLP142 T01171061





000
SAUS43 KUNR 191557
MTRD07
METAR KD07 191556Z AUTO 30017KT 13/M06 A3000 RMK AO1 SLP163
T01281056





000
SAUS43 KUNR 191503
MTR2WX
METAR K2WX 191456Z AUTO 26017KT 11/M06 A2993 RMK AO1 SLP137
T01061061 51019





000
SAUS43 KUNR 191457
MTRD07
METAR KD07 191456Z AUTO 30015KT 11/M05 A2999 RMK AO1 SLP155
T01111050 51021





000
SAUS43 KUNR 191403
MTR2WX
METAR K2WX 191356Z AUTO 24010KT 06/M04 A2991 RMK AO1 SLP136
T00611044





000
SAUS43 KUNR 191357
MTRD07
METAR KD07 191356Z AUTO 27013KT 08/M03 A2998 RMK AO1 SLP153
T00781028





000
SAUS43 KUNR 191303
MTR2WX
METAR K2WX 191256Z AUTO 26008KT 02/M05 A2989 RMK AO1 SLP132
T00171050





000
SAUS43 KUNR 191257
MTRD07
METAR KD07 191256Z AUTO 28010KT 05/M01 A2995 RMK AO1 SLP144
T00501011





000
SAUS43 KUNR 191203
MTR2WX
METAR K2WX 191156Z AUTO 28008KT 00/M04 A2987 RMK AO1 SLP117
T00001044 10061 20000 53019





000
SAUS43 KUNR 191157
MTRD07
METAR KD07 191156Z AUTO 28010KT 04/M01 A2993 RMK AO1 SLP135
T00391006 10100 20039 53024





000
SAUS43 KUNR 191103
MTR2WX
METAR K2WX 191056Z AUTO 24009KT 01/M03 A2984 RMK AO1 SLP106
T00111033





000
SAUS43 KUNR 191057
MTRD07
METAR KD07 191056Z AUTO 28012KT 05/00 A2990 RMK AO1 SLP123 T00500000





000
SAUS43 KUNR 191003
MTR2WX
METAR K2WX 190956Z AUTO 29012KT 02/M03 A2982 RMK AO1 SLP099
T00171028





000
SAUS43 KUNR 190957
MTRD07
METAR KD07 190956Z AUTO 28007KT 05/01 A2988 RMK AO1 SLP119 T00500006





000
SAUS43 KUNR 190903
MTR2WX
METAR K2WX 190856Z AUTO 28009KT 03/M02 A2981 RMK AO1 SLP093
T00281017 51018





000
SAUS43 KUNR 190857
MTRD07
METAR KD07 190856Z AUTO 31011KT 06/02 A2985 RMK AO1 SLP111 T00560017
51022





000
SAUS43 KUNR 190803
MTR2WX
METAR K2WX 190756Z AUTO 29016KT 05/M01 A2979 RMK AO1 SLP086
T00501006





000
SAUS43 KUNR 190757
MTRD07
METAR KD07 190756Z AUTO 31012KT 06/02 A2985 RMK AO1 PK WND
32026/0703 SLP110 T00610022





000
SAUS43 KUNR 190703
MTR2WX
METAR K2WX 190656Z AUTO 26008KT 06/01 A2977 RMK AO1 PK WND
32028/0557 SLP081 T00610011 402221022





000
SAUS43 KUNR 190657
MTRD07
METAR KD07 190656Z AUTO 32022G42KT 08/03 A2984 RMK AO1 PK WND
32042/0647 SLP109 T00780028 402390006





000
SAUS43 KUNR 190604 COR
MTR2WX
METAR K2WX 190556Z AUTO 32023G35KT 06/02 A2975 RMK AO1 PK WND
31048/0509 SLP078 T00560017 10194 20056 51033





000
SAUS43 KUNR 190603
MTR2WX
METAR K2WX 190556Z AUTO 32023G35KT 06/02 A2975 RMK AO1 PK WND
31048/0509 SLP078 T00560017 10194 20056 51033





000
SAUS43 KUNR 190557
MTRD07
METAR KD07 190556Z AUTO 31013KT 09/04 A2978 RMK AO1 PRESRR SLP089
T00940044 10228 20094 53059





000
SAUS43 KUNR 190503
MTR2WX
METAR K2WX 190456Z AUTO 31035G45KT 08/04 A2974 RMK AO1 PK WND
31045/0456 SLP075 T00830044





000
SAUS43 KUNR 190457
MTRD07
METAR KD07 190456Z AUTO 33016KT 10/05 A2969 RMK AO1 PK WND
32026/0405 SLP057 T01000050





000
SAUS43 KUNR 190403
MTR2WX
METAR K2WX 190356Z AUTO 31018KT 09/04 A2968 RMK AO1 SLP055 T00940044





000
SAUS43 KUNR 190357
MTRD07
METAR KD07 190356Z AUTO 33016KT 12/05 A2966 RMK AO1 PK WND
32028/0329 WSHFT 0303 SLP048 T01170050





000
SAUS43 KUNR 190324
MTRD07
SPECI KD07 190323Z AUTO 31020KT 16/05 A2962 RMK AO1 PK WND
32028/0310 WSHFT 0303 PRESRR T01560050





000
SAUS43 KUNR 190314
MTRD07
SPECI KD07 190312Z AUTO 31021G27KT 17/05 A2961 RMK AO1 PK WND
32028/0310 WSHFT 0252 T01670050





000
SAUS43 KUNR 190303
MTR2WX
METAR K2WX 190256Z AUTO 34012KT 10/05 A2964 RMK AO1 SLP044 T01000050
53032





000
SAUS43 KUNR 190257
MTRD07
METAR KD07 190256Z AUTO 23012KT 18/04 A2959 RMK AO1 SLP022 T01830044
53015





000
SAUS43 KUNR 190203
MTR2WX
METAR K2WX 190156Z AUTO 33021KT 11/04 A2961 RMK AO1 PK WND
33037/0058 PRESRR SLP036 T01110044





000
SAUS43 KUNR 190157
MTRD07
METAR KD07 190156Z AUTO 21008KT 17/04 A2956 RMK AO1 SLP016 T01720039





000
SAUS43 KUNR 190103
MTR2WX
METAR K2WX 190056Z AUTO 33033G43KT 14/03 A2955 RMK AO1 PK WND
33043/0051 SLP018 T01390033





000
SAUS43 KUNR 190057
MTRD07
METAR KD07 190056Z AUTO 18013KT 21/03 A2954 RMK AO1 SLP007 T02110028





000
SAUS43 KUNR 190003
MTR2WX
METAR K2WX 182356Z AUTO 35013KT 19/05 A2954 RMK AO1 SLP006 T01940050
10222 20133 55014





000
SAUS43 KUNR 182357
MTRD07
METAR KD07 182356Z AUTO 19015KT 23/02 A2954 RMK AO1 SLP007 T02280017
10239 20128 56035





000
SAUS43 KUNR 182303
MTR2WX
METAR K2WX 182256Z AUTO 12009KT 21/04 A2952 RMK AO1 SLP998 T02110044





000
SAUS43 KUNR 182257
MTRD07
METAR KD07 182256Z AUTO 15013KT 23/04 A2956 RMK AO1 SLP013 T02330044





000
SAUS43 KUNR 182203
MTR2WX
METAR K2WX 182156Z AUTO 12015KT 21/04 A2954 RMK AO1 PK WND
13026/2106 SLP003 T02060044





000
SAUS43 KUNR 182157
MTRD07
METAR KD07 182156Z AUTO 14016G22KT 21/05 A2961 RMK AO1 SLP031
T02060050





000
SAUS43 KUNR 182103
MTR2WX
METAR K2WX 182056Z AUTO 14020KT 19/04 A2958 RMK AO1 PK WND
15028/2020 SLP019 T01940039 56029





000
SAUS43 KUNR 182057
MTRD07
METAR KD07 182056Z AUTO 13018G25KT 19/04 A2966 RMK AO1 PK WND
13026/2023 SLP048 T01890044 58037





000
SAUS43 KUNR 182004 COR
MTR2WX
METAR K2WX 181956Z AUTO 14020G26KT 18/03 A2960 RMK AO1 PK WND
15028/1941 SLP025 T01830028





000
SAUS43 KUNR 181957
MTRD07
METAR KD07 181956Z AUTO 14016G24KT 18/04 A2971 RMK AO1 SLP067
T01830044





000
SAUS43 KUNR 181903
MTR2WX
METAR K2WX 181856Z AUTO 13021KT 17/03 A2962 RMK AO1 PK WND
14027/1820 SLP034 T01670033





000
SAUS43 KUNR 181857
MTRD07
METAR KD07 181856Z AUTO 14017G25KT 16/04 A2975 RMK AO1 PK WND
12027/1831 SLP083 T01560039





000
SAUS43 KUNR 181803
MTR2WX
METAR K2WX 181756Z AUTO 14016KT 13/03 A2968 RMK AO1 PK WND
15026/1743 SLP056 T01280028 10139 21022 58017





000
SAUS43 KUNR 181757
MTRD07
METAR KD07 181756Z AUTO 13017G26KT 13/03 A2978 RMK AO1 PK WND
12026/1752 SLP095 T01280028 10133 20006 58022





000
SAUS43 KUNR 181703
MTR2WX
METAR K2WX 181656Z AUTO 14015KT 11/02 A2970 RMK AO1 SLP064 T01110022





000
SAUS43 KUNR 181657
MTRD07
METAR KD07 181656Z AUTO 12016G20KT 12/02 A2981 RMK AO1 SLP107
T01170022





000
SAUS43 KUNR 181603
MTR2WX
METAR K2WX 181556Z AUTO 14015KT 09/01 A2973 RMK AO1 SLP076 T00890011





000
SAUS43 KUNR 181557
MTRD07
METAR KD07 181556Z AUTO 12011KT 08/01 A2984 RMK AO1 SLP119 T00830011





000
SAUS43 KUNR 181503
MTR2WX
METAR K2WX 181456Z AUTO 14016KT 06/00 A2973 RMK AO1 SLP082 T00560000
58015





000
SAUS43 KUNR 181457
MTRD07
METAR KD07 181456Z AUTO 12013KT 06/00 A2985 RMK AO1 SLP125 T00610000
58005





    US Dept of Commerce
    National Oceanic and Atmospheric Administration
    National Weather Service
    1325 East West Highway
    Silver Spring, MD 20910
    Page Author: NWS Internet Services Team
Disclaimer
Information Quality
Credits
Glossary
Privacy Policy
Freedom of Information Act (FOIA)
About Us
Career Opportunities